Time;durP1;ratioP1;P1;durP2;ratioP2;P2;SDS_P1;SDS_P2;PMS_P1;PMS_P2;Temp;Humidity;BMP_temperature;BMP_pressure;BME280_temperature;BME280_humidity;BME280_pressure;Samples;Min_cycle;Max_cycle;Signal;HPM_P1;HPM_P2
2022/05/07 00:00:32;;;;;;;12.57;6.43;;;;;;;10.33;67.56;100088.50;4993825;28;20026;-78
2022/05/07 00:02:58;;;;;;;11.98;7.68;;;;;;;10.19;68.32;100094.13;4993996;28;20433;-78
2022/05/07 00:05:24;;;;;;;17.05;9.43;;;;;;;9.89;69.51;100084.53;4993881;28;20023;-79
2022/05/07 00:07:51;;;;;;;19.25;11.82;;;;;;;10.04;69.30;100083.34;5006392;28;20518;-79
2022/05/07 00:10:17;;;;;;;24.23;12.13;;;;;;;10.17;68.62;100078.81;5007574;28;20025;-78
2022/05/07 00:12:42;;;;;;;20.42;11.50;;;;;;;10.42;67.73;100079.34;4976419;28;20462;-78
2022/05/07 00:15:09;;;;;;;20.08;12.43;;;;;;;10.60;66.99;100071.88;4993601;28;20030;-78
2022/05/07 00:20:19;;;;;;;19.85;11.13;;;;;;;10.76;65.52;100077.91;4993810;28;20088;-79
2022/05/07 00:22:44;;;;;;;14.30;7.55;;;;;;;10.75;64.52;100077.09;4976057;28;20113;-78
2022/05/07 00:25:10;;;;;;;9.82;6.78;;;;;;;10.79;64.01;100068.84;4988923;28;20037;-78
2022/05/07 00:27:36;;;;;;;8.50;6.95;;;;;;;10.90;64.22;100061.00;5003490;28;20510;-79
2022/05/07 00:30:02;;;;;;;11.50;5.93;;;;;;;10.95;63.66;100066.47;5012991;28;20029;-78
2022/05/07 00:32:28;;;;;;;10.60;6.78;;;;;;;10.82;63.45;100057.03;4995518;28;20061;-79
2022/05/07 00:34:53;;;;;;;10.90;6.22;;;;;;;11.05;63.05;100071.78;4995477;28;20115;-78
2022/05/07 00:37:19;;;;;;;11.85;5.60;;;;;;;11.19;62.47;100068.03;5011110;28;20038;-78
2022/05/07 00:39:47;;;;;;;10.75;6.13;;;;;;;11.38;61.77;100074.19;5012840;28;20033;-79
2022/05/07 00:42:12;;;;;;;9.82;5.57;;;;;;;11.58;61.10;100063.50;5011679;28;20029;-78
2022/05/07 00:44:38;;;;;;;9.48;5.97;;;;;;;11.59;60.55;100059.56;5012555;28;20063;-79
2022/05/07 00:47:29;;;;;;;27.55;8.38;;;;;;;11.48;60.81;100063.84;4995000;28;20049;-77
2022/05/07 00:51:33;;;;;;;15.25;8.07;;;;;;;11.38;61.47;100076.16;4994185;28;20061;-77
2022/05/07 00:52:43;;;;;;;10.95;6.38;;;;;;;11.31;61.70;100073.81;4993112;28;20062;-78
2022/05/07 00:55:11;;;;;;;9.30;5.35;;;;;;;11.48;61.37;100061.84;4992903;28;20022;-78
2022/05/07 00:57:37;;;;;;;9.30;5.65;;;;;;;11.75;60.83;100047.88;4992240;28;20032;-78
2022/05/07 01:00:04;;;;;;;8.30;5.32;;;;;;;11.97;59.99;100063.69;5011122;28;20034;-79
2022/05/07 01:02:30;;;;;;;12.80;6.13;;;;;;;12.01;60.05;100052.66;5012919;28;20408;-78
2022/05/07 01:04:56;;;;;;;10.15;6.25;;;;;;;12.14;59.63;100053.66;4995052;28;20116;-79
2022/05/07 01:07:21;;;;;;;14.43;6.82;;;;;;;12.26;59.32;100058.59;5011049;28;20444;-78
2022/05/07 01:09:48;;;;;;;9.35;6.38;;;;;;;12.33;59.40;100056.13;4994740;28;20064;-78
2022/05/07 01:12:14;;;;;;;12.45;6.80;;;;;;;12.29;59.18;100053.16;4994637;28;20030;-79
2022/05/07 01:14:40;;;;;;;8.70;6.47;;;;;;;12.19;59.81;100048.72;4994124;28;20116;-78
2022/05/07 01:17:09;;;;;;;9.00;6.20;;;;;;;12.19;58.81;100054.31;4994450;28;20041;-78
2022/05/07 01:19:35;;;;;;;15.30;6.88;;;;;;;11.87;59.60;100042.44;4994382;28;20036;-78
2022/05/07 01:22:05;;;;;;;10.63;6.57;;;;;;;11.82;60.13;100056.59;4994556;28;20018;-78
2022/05/07 01:24:31;;;;;;;12.18;6.45;;;;;;;10.49;64.38;100057.34;5012131;28;20409;-78
2022/05/07 01:26:56;;;;;;;8.15;5.82;;;;;;;10.72;64.33;100066.50;4991209;28;20061;-79
2022/05/07 01:29:22;;;;;;;13.90;7.97;;;;;;;11.01;63.27;100058.75;4992287;28;20026;-79
2022/05/07 01:31:47;;;;;;;19.25;9.55;;;;;;;11.14;62.95;100052.19;4974812;28;20026;-79
2022/05/07 01:34:13;;;;;;;18.75;8.40;;;;;;;10.82;63.52;100048.66;4974879;28;20022;-78
2022/05/07 01:36:39;;;;;;;14.48;7.95;;;;;;;10.70;63.92;100046.44;4992313;28;20410;-77
2022/05/07 01:39:05;;;;;;;14.77;8.13;;;;;;;11.11;62.71;100052.03;4992410;28;20050;-78
2022/05/07 01:41:31;;;;;;;15.75;6.88;;;;;;;10.62;64.09;100052.84;4992409;28;20040;-78
2022/05/07 01:43:56;;;;;;;17.40;8.15;;;;;;;10.90;63.29;100058.22;5011613;28;20516;-78
2022/05/07 01:49:05;;;;;;;17.40;10.55;;;;;;;10.10;66.13;100056.91;5003009;28;20409;-78
2022/05/07 01:51:31;;;;;;;18.23;8.32;;;;;;;9.87;67.58;100053.28;4992134;28;20023;-78
2022/05/07 01:53:57;;;;;;;10.70;7.78;;;;;;;9.92;66.89;100058.72;4992144;28;20437;-79
2022/05/07 01:56:23;;;;;;;12.43;8.65;;;;;;;9.68;68.10;100052.31;4974684;28;20050;-79
2022/05/07 01:58:49;;;;;;;15.10;9.52;;;;;;;9.34;69.67;100050.81;4974753;28;20073;-79
2022/05/07 02:01:15;;;;;;;18.27;10.82;;;;;;;9.11;71.01;100050.75;4987531;28;20045;-78
2022/05/07 02:03:40;;;;;;;21.83;11.18;;;;;;;9.27;70.78;100051.25;4992189;28;20029;-78
2022/05/07 02:06:06;;;;;;;15.27;10.25;;;;;;;9.33;70.44;100049.16;4994176;28;20030;-78
2022/05/07 02:08:31;;;;;;;26.33;14.38;;;;;;;9.02;72.33;100055.38;4994528;28;20088;-78
2022/05/07 02:11:01;;;;;;;27.00;14.43;;;;;;;9.06;72.35;100052.81;5009278;28;20096;-78
2022/05/07 02:13:27;;;;;;;24.38;17.90;;;;;;;9.22;71.57;100056.91;4996054;28;20034;-77
2022/05/07 02:15:53;;;;;;;26.45;15.80;;;;;;;9.45;70.46;100070.16;4996119;28;20026;-78
2022/05/07 02:18:18;;;;;;;19.70;11.10;;;;;;;9.58;69.49;100063.72;4995872;28;20022;-78
2022/05/07 02:20:44;;;;;;;19.52;12.02;;;;;;;9.09;70.27;100052.19;4995761;28;20022;-78
2022/05/07 02:23:09;;;;;;;17.88;11.85;;;;;;;8.82;72.58;100053.84;4995829;28;20034;-78
2022/05/07 02:25:35;;;;;;;19.90;12.13;;;;;;;8.81;72.60;100053.03;4978263;28;20018;-78
2022/05/07 02:28:00;;;;;;;27.00;12.60;;;;;;;8.79;73.03;100055.28;4992515;28;20512;-77
2022/05/07 02:30:26;;;;;;;29.45;14.60;;;;;;;8.66;73.78;100050.50;4997947;28;20025;-77
2022/05/07 02:32:51;;;;;;;24.88;12.68;;;;;;;8.51;74.04;100043.28;5012933;28;20504;-78
2022/05/07 02:35:17;;;;;;;19.52;11.70;;;;;;;8.38;74.28;100042.06;4978476;28;20026;-78
2022/05/07 02:37:42;;;;;;;18.85;10.25;;;;;;;8.12;75.38;100037.75;5007600;28;20038;-78
2022/05/07 02:40:09;;;;;;;15.25;9.05;;;;;;;8.15;75.47;100053.06;4996080;28;20054;-78
2022/05/07 02:42:36;;;;;;;15.32;9.07;;;;;;;7.98;75.19;100048.88;5009807;28;20023;-78
2022/05/07 02:45:12;;;;;;;14.18;9.65;;;;;;;8.15;75.03;100056.69;4994683;28;20057;-78
2022/05/07 02:47:40;;;;;;;14.50;9.23;;;;;;;8.68;73.99;100051.88;4997705;28;20025;-79
2022/05/07 02:50:08;;;;;;;13.25;9.82;;;;;;;8.87;71.14;100050.97;5014917;28;20024;-79
2022/05/07 02:52:35;;;;;;;13.25;10.40;;;;;;;9.00;71.07;100060.47;4981144;28;20034;-77
2022/05/07 02:55:02;;;;;;;20.48;10.63;;;;;;;9.02;70.70;100054.56;5010044;28;20130;-79
2022/05/07 02:57:28;;;;;;;11.02;8.98;;;;;;;8.96;70.27;100054.66;4977602;28;20048;-79
2022/05/07 02:59:54;;;;;;;17.55;9.98;;;;;;;8.74;70.31;100058.16;4995052;28;20418;-79
2022/05/07 03:02:20;;;;;;;13.82;9.63;;;;;;;8.35;71.90;100063.00;4994975;28;20033;-78
2022/05/07 03:04:47;;;;;;;14.27;9.80;;;;;;;8.29;72.70;100056.69;4977569;28;20022;-78
2022/05/07 03:07:16;;;;;;;15.93;9.85;;;;;;;8.62;71.94;100066.22;4995072;28;20026;-78
2022/05/07 03:09:41;;;;;;;13.52;9.07;;;;;;;8.38;72.58;100067.16;4998322;28;20101;-78
2022/05/07 03:12:09;;;;;;;15.57;9.73;;;;;;;8.22;73.55;100055.44;4994800;28;20065;-79
2022/05/07 03:14:35;;;;;;;16.90;10.15;;;;;;;8.17;73.50;100064.72;4993493;28;20113;-78
2022/05/07 03:17:01;;;;;;;18.40;10.38;;;;;;;7.73;74.99;100052.88;4994604;28;20444;-78
2022/05/07 03:19:27;;;;;;;15.55;10.13;;;;;;;8.04;73.97;100046.84;4994491;28;20099;-78
2022/05/07 03:21:53;;;;;;;17.30;10.07;;;;;;;8.00;73.34;100041.03;4994833;28;20098;-79
2022/05/07 03:24:18;;;;;;;16.83;10.20;;;;;;;8.09;73.51;100049.53;4993451;28;20146;-78
2022/05/07 03:26:44;;;;;;;15.35;9.25;;;;;;;8.19;73.56;100073.59;4994366;28;20095;-78
2022/05/07 03:29:10;;;;;;;17.10;9.88;;;;;;;7.90;74.94;100057.06;4977163;28;20030;-77
2022/05/07 03:31:37;;;;;;;16.52;9.93;;;;;;;7.68;75.98;100073.28;4977210;28;20029;-78
2022/05/07 03:34:03;;;;;;;20.80;10.30;;;;;;;7.54;77.25;100077.94;4993494;28;20081;-78
2022/05/07 03:36:29;;;;;;;17.42;11.48;;;;;;;7.57;77.32;100080.94;4994397;28;20026;-79
2022/05/07 03:38:54;;;;;;;18.17;11.32;;;;;;;7.51;76.96;100050.69;4993473;28;20069;-78
2022/05/07 03:41:20;;;;;;;28.48;13.23;;;;;;;7.82;75.70;100069.72;5005619;28;20030;-78
2022/05/07 03:43:45;;;;;;;26.08;12.15;;;;;;;7.85;75.52;100058.00;5013750;28;20026;-78
2022/05/07 03:46:11;;;;;;;19.48;12.80;;;;;;;8.14;75.32;100073.69;5013055;28;20061;-78
2022/05/07 03:48:37;;;;;;;16.50;11.13;;;;;;;8.24;74.82;100073.53;4976837;28;20429;-78
2022/05/07 03:51:03;;;;;;;22.15;12.07;;;;;;;8.07;75.24;100060.16;4994627;28;20028;-77
2022/05/07 03:53:31;;;;;;;17.35;12.35;;;;;;;8.06;75.40;100061.28;4993482;28;20123;-78
2022/05/07 03:56:07;;;;;;;25.83;12.40;;;;;;;8.25;74.92;100068.75;4993984;28;20088;-77
2022/05/07 03:58:36;;;;;;;18.17;10.52;;;;;;;8.29;75.34;100086.56;4976007;28;20117;-78
2022/05/07 04:01:03;;;;;;;16.77;10.77;;;;;;;8.03;76.18;100077.78;4978286;28;20026;-77
2022/05/07 04:03:30;;;;;;;17.40;10.07;;;;;;;8.01;76.86;100086.44;5012863;28;20467;-78
2022/05/07 04:05:56;;;;;;;14.90;11.63;;;;;;;7.88;77.01;100065.75;4992003;28;20129;-78
2022/05/07 04:08:23;;;;;;;17.08;11.35;;;;;;;8.03;77.05;100089.75;4975587;28;20092;-77
2022/05/07 04:10:49;;;;;;;15.35;10.77;;;;;;;7.65;77.94;100065.53;4998520;28;20109;-78
2022/05/07 04:13:18;;;;;;;14.38;10.98;;;;;;;7.83;78.05;100071.38;4992260;28;20026;-78
2022/05/07 04:15:44;;;;;;;20.02;11.07;;;;;;;7.96;78.20;100092.94;5009720;28;20034;-78
2022/05/07 04:18:11;;;;;;;16.65;11.07;;;;;;;7.86;78.41;100079.16;4983789;28;20029;-78
2022/05/07 04:20:37;;;;;;;12.88;10.15;;;;;;;7.82;79.02;100073.34;4983715;28;20030;-78
2022/05/07 04:23:04;;;;;;;18.58;12.50;;;;;;;7.92;78.85;100079.91;4992828;28;20032;-78
2022/05/07 04:25:30;;;;;;;16.55;9.75;;;;;;;8.06;79.42;100103.06;4994203;28;20463;-79
2022/05/07 04:27:56;;;;;;;15.07;11.13;;;;;;;8.09;79.46;100090.50;4993941;28;20025;-75
2022/05/07 04:30:22;;;;;;;23.27;11.02;;;;;;;8.04;80.01;100096.16;5010734;28;20018;-81
2022/05/07 04:32:48;;;;;;;16.52;10.15;;;;;;;8.23;79.86;100110.03;4997554;28;20030;-76
2022/05/07 04:35:14;;;;;;;14.38;9.93;;;;;;;8.28;78.92;100112.78;5000303;28;20037;-76
2022/05/07 04:37:39;;;;;;;20.90;11.70;;;;;;;8.47;78.79;100103.53;4975794;28;20034;-76
2022/05/07 04:40:05;;;;;;;22.40;10.77;;;;;;;8.39;79.13;100108.69;4997273;28;20018;-76
2022/05/07 04:42:31;;;;;;;19.88;11.93;;;;;;;8.27;79.24;100113.91;5003254;28;20026;-75
2022/05/07 04:44:56;;;;;;;15.10;9.80;;;;;;;8.43;79.05;100114.44;4997258;28;20038;-75
2022/05/07 04:47:22;;;;;;;23.67;10.70;;;;;;;8.47;79.59;100109.94;4993016;28;20468;-79
2022/05/07 04:49:47;;;;;;;20.23;11.18;;;;;;;8.51;79.17;100115.78;4993073;28;20375;-80
2022/05/07 04:52:13;;;;;;;18.40;10.10;;;;;;;8.50;78.69;100114.94;4995410;28;20030;-79
2022/05/07 04:54:38;;;;;;;14.15;9.75;;;;;;;8.32;79.55;100110.19;5008836;28;20030;-80
2022/05/07 04:57:04;;;;;;;21.85;10.38;;;;;;;8.39;79.10;100110.63;5011990;28;20050;-81
2022/05/07 04:59:30;;;;;;;15.73;11.45;;;;;;;8.48;79.82;100125.53;5000390;28;20072;-81
2022/05/07 05:01:56;;;;;;;14.48;10.68;;;;;;;8.55;79.33;100128.78;4990987;28;20033;-82
2022/05/07 05:04:21;;;;;;;25.73;11.02;;;;;;;8.68;78.89;100129.94;4992730;28;20034;-80
2022/05/07 05:06:47;;;;;;;14.55;9.68;;;;;;;8.69;78.75;100119.63;4992638;28;20053;-81
2022/05/07 05:09:13;;;;;;;19.48;10.68;;;;;;;8.76;78.73;100136.78;4983881;28;20467;-80
2022/05/07 05:11:39;;;;;;;17.27;11.48;;;;;;;8.61;79.09;100134.28;4993497;28;20121;-80
2022/05/07 05:16:50;;;;;;;19.33;10.32;;;;;;;8.71;79.76;100131.31;5011348;28;20037;-80
2022/05/07 05:19:16;;;;;;;17.33;9.68;;;;;;;8.78;79.03;100130.91;5011015;28;20030;-82
2022/05/07 05:21:41;;;;;;;23.50;10.63;;;;;;;8.93;78.30;100124.19;5003149;28;20026;-76
2022/05/07 05:24:07;;;;;;;12.88;10.05;;;;;;;8.94;77.76;100125.88;4994291;28;20392;-81
2022/05/07 05:26:33;;;;;;;16.08;10.38;;;;;;;9.00;78.14;100116.25;5007550;28;20036;-81
2022/05/07 05:28:58;;;;;;;17.17;9.57;;;;;;;9.14;77.73;100127.44;5005482;28;20034;-80
2022/05/07 05:31:24;;;;;;;12.85;10.45;;;;;;;8.95;78.32;100133.13;4997802;28;20029;-81
2022/05/07 05:33:49;;;;;;;18.42;11.38;;;;;;;9.05;78.33;100124.56;4997148;28;20041;-81
2022/05/07 05:36:15;;;;;;;21.83;11.55;;;;;;;9.20;78.21;100136.53;4996174;28;20040;-81
2022/05/07 05:38:40;;;;;;;25.83;12.82;;;;;;;9.20;78.36;100130.97;4999557;28;20049;-81
2022/05/07 05:41:06;;;;;;;21.98;12.60;;;;;;;9.17;78.52;100128.75;5003072;28;20041;-81
2022/05/07 05:43:32;;;;;;;23.23;12.40;;;;;;;9.32;78.97;100136.84;4997394;28;20392;-81
2022/05/07 05:45:58;;;;;;;20.23;12.52;;;;;;;9.56;77.71;100133.00;4992242;28;20029;-80
2022/05/07 05:48:27;;;;;;;14.55;11.45;;;;;;;9.72;76.36;100129.88;4993478;28;20457;-81
2022/05/07 05:50:52;;;;;;;37.63;12.60;;;;;;;10.04;75.00;100142.03;4999733;28;20025;-86
2022/05/07 05:53:18;;;;;;;19.75;12.13;;;;;;;10.27;75.27;100140.06;5010849;28;20704;-75
2022/05/07 05:55:43;;;;;;;20.33;11.43;;;;;;;10.39;74.72;100136.72;4982943;28;20034;-78
2022/05/07 05:58:09;;;;;;;13.48;10.20;;;;;;;10.37;73.97;100141.78;4998203;28;20049;-79
2022/05/07 06:00:34;;;;;;;14.93;10.77;;;;;;;10.40;74.34;100132.78;5000700;28;20038;-80
2022/05/07 06:03:00;;;;;;;19.20;10.63;;;;;;;10.38;74.46;100135.09;4986636;28;20041;-82
2022/05/07 06:05:25;;;;;;;17.42;10.27;;;;;;;10.58;73.68;100138.53;4976977;28;20539;-82
2022/05/07 06:07:51;;;;;;;18.30;10.40;;;;;;;10.76;72.34;100134.69;4987428;28;20026;-82
2022/05/07 06:10:17;;;;;;;17.40;9.90;;;;;;;10.85;71.63;100134.75;4994017;28;20025;-79
2022/05/07 06:12:42;;;;;;;11.50;9.00;;;;;;;10.76;69.81;100139.44;5010901;28;20477;-81
2022/05/07 06:15:10;;;;;;;12.52;8.82;;;;;;;10.83;69.98;100128.66;4994012;28;20025;-83
2022/05/07 06:17:35;;;;;;;21.15;9.15;;;;;;;10.72;68.87;100128.06;5011593;28;20488;-82
2022/05/07 06:20:01;;;;;;;13.07;9.45;;;;;;;10.99;68.14;100131.03;4993155;28;20034;-82
2022/05/07 06:22:26;;;;;;;14.23;8.98;;;;;;;11.02;67.62;100139.59;5006878;28;20109;-82
2022/05/07 06:27:36;;;;;;;13.60;8.18;;;;;;;11.23;67.80;100133.44;4994814;28;20053;-82
2022/05/07 06:30:04;;;;;;;13.48;8.68;;;;;;;11.46;66.25;100133.34;4977005;28;20117;-80
2022/05/07 06:32:37;;;;;;;10.50;7.72;;;;;;;11.49;65.62;100124.31;4991952;28;20049;-76
2022/05/07 06:35:07;;;;;;;14.75;8.15;;;;;;;11.66;65.01;100132.75;4976762;28;20522;-77
2022/05/07 06:37:33;;;;;;;16.35;9.50;;;;;;;11.88;63.67;100122.56;4987181;28;20029;-79
2022/05/07 06:40:03;;;;;;;24.92;10.13;;;;;;;12.36;65.41;100119.97;5000786;28;20022;-85
2022/05/07 06:42:29;;;;;;;25.13;10.27;;;;;;;12.61;63.15;100125.88;4989628;28;20034;-77
2022/05/07 06:44:54;;;;;;;20.92;9.02;;;;;;;12.67;62.48;100118.94;4995977;28;20536;-77
2022/05/07 06:47:20;;;;;;;13.35;8.95;;;;;;;12.47;63.50;100117.63;5009159;28;20026;-80
2022/05/07 06:49:54;;;;;;;20.60;10.20;;;;;;;12.63;63.89;100126.34;4997407;28;20026;-84
2022/05/07 06:52:20;;;;;;;18.35;9.60;;;;;;;12.96;63.19;100110.91;4987021;28;20041;-77
2022/05/07 06:54:51;;;;;;;24.05;12.88;;;;;;;13.26;61.34;100119.41;4992731;28;20500;-78
2022/05/07 06:57:18;;;;;;;25.83;12.32;;;;;;;13.41;60.80;100129.25;5012578;28;20029;-84
2022/05/07 06:59:44;;;;;;;17.52;10.48;;;;;;;13.46;62.11;100123.47;5002614;28;20030;-83
2022/05/07 07:02:09;;;;;;;12.75;9.38;;;;;;;13.65;60.51;100117.41;4995646;28;20022;-77
2022/05/07 07:04:36;;;;;;;13.52;9.15;;;;;;;13.78;60.74;100115.50;4995476;28;20026;-76
2022/05/07 07:07:02;;;;;;;17.23;9.35;;;;;;;13.81;59.49;100111.16;4999548;28;20030;-73
2022/05/07 07:09:30;;;;;;;18.00;10.18;;;;;;;13.68;57.86;100105.47;5006879;28;20088;-75
2022/05/07 07:11:56;;;;;;;18.65;8.35;;;;;;;13.89;59.09;100102.69;4996804;28;20397;-78
2022/05/07 07:14:24;;;;;;;13.57;7.65;;;;;;;13.94;59.72;100096.03;4995152;28;20030;-78
2022/05/07 07:16:50;;;;;;;15.35;8.82;;;;;;;14.01;59.79;100106.75;4977458;28;20027;-74
2022/05/07 07:19:16;;;;;;;12.48;8.35;;;;;;;14.23;59.27;100115.97;4977599;28;20113;-74
2022/05/07 07:21:43;;;;;;;11.35;8.55;;;;;;;14.30;58.16;100113.44;4978523;28;20331;-82
2022/05/07 07:24:08;;;;;;;18.38;9.50;;;;;;;14.26;56.55;100118.13;4986178;28;20489;-74
2022/05/07 07:26:35;;;;;;;12.48;7.97;;;;;;;14.08;58.29;100097.75;4995021;28;20030;-78
2022/05/07 07:29:00;;;;;;;12.82;8.88;;;;;;;14.50;58.55;100117.38;5008410;28;20033;-75
2022/05/07 07:31:26;;;;;;;12.23;8.68;;;;;;;14.46;56.21;100105.19;5005488;28;20157;-77
2022/05/07 07:33:51;;;;;;;19.85;9.40;;;;;;;14.29;55.75;100111.78;5006655;28;20045;-77
2022/05/07 07:36:17;;;;;;;12.48;8.98;;;;;;;14.63;58.76;100108.97;4994605;28;20557;-79
2022/05/07 07:38:43;;;;;;;15.93;8.98;;;;;;;14.54;58.28;100106.25;4983151;28;20081;-80
2022/05/07 07:41:15;;;;;;;11.07;9.05;;;;;;;14.81;56.92;100113.31;4989221;28;20057;-83
2022/05/07 07:43:40;;;;;;;16.48;9.52;;;;;;;15.04;55.23;100106.41;4984608;28;20538;-80
2022/05/07 07:48:50;;;;;;;14.32;8.45;;;;;;;15.18;54.23;100081.53;4986602;28;20117;-77
2022/05/07 07:51:16;;;;;;;11.52;8.23;;;;;;;15.38;55.10;100081.78;4996354;28;20537;-77
2022/05/07 07:53:42;;;;;;;17.65;10.05;;;;;;;15.51;53.77;100103.16;4976908;28;20022;-77
2022/05/07 07:56:12;;;;;;;21.00;9.57;;;;;;;15.51;54.86;100069.31;4994291;28;20022;-77
2022/05/07 07:58:37;;;;;;;18.30;8.73;;;;;;;15.75;53.34;100072.44;4976710;28;20026;-77
2022/05/07 08:01:03;;;;;;;17.40;9.63;;;;;;;16.00;52.57;100093.00;4976618;28;20038;-77
2022/05/07 08:03:29;;;;;;;15.77;9.30;;;;;;;16.13;52.26;100088.13;4990518;28;20033;-77
2022/05/07 08:05:55;;;;;;;17.50;8.77;;;;;;;16.22;52.61;100087.97;4983473;28;20065;-76
2022/05/07 08:13:53;;;;;;;12.90;9.50;;;;;;;16.71;53.90;100089.72;4997276;28;20028;-78
2022/05/07 08:16:20;;;;;;;12.23;10.18;;;;;;;15.74;53.04;100088.56;5007296;28;20022;-75
2022/05/07 08:18:46;;;;;;;14.90;9.65;;;;;;;15.94;54.31;100080.31;5010803;28;20476;-77
2022/05/07 08:21:12;;;;;;;14.98;9.00;;;;;;;16.56;53.84;100097.00;4981795;28;20034;-75
2022/05/07 08:23:39;;;;;;;19.65;9.25;;;;;;;16.97;53.11;100088.41;5002599;28;20108;-78
2022/05/07 08:26:06;;;;;;;22.40;10.32;;;;;;;17.17;50.72;100091.34;4980527;28;20038;-76
2022/05/07 08:28:36;;;;;;;14.60;8.68;;;;;;;17.24;49.27;100089.53;4998236;28;20034;-77
2022/05/07 08:31:02;;;;;;;10.38;8.52;;;;;;;17.16;49.42;100086.88;4980916;28;20109;-77
2022/05/07 08:33:29;;;;;;;14.80;8.20;;;;;;;17.37;48.81;100095.06;4993583;28;20464;-76
2022/05/07 08:35:54;;;;;;;16.90;8.57;;;;;;;17.39;48.46;100079.41;4983118;28;20026;-77
2022/05/07 08:38:20;;;;;;;15.40;9.15;;;;;;;17.28;47.98;100083.16;5010626;28;20512;-78
2022/05/07 08:40:45;;;;;;;12.63;7.25;;;;;;;17.57;46.97;100095.16;4994954;28;20077;-84
2022/05/07 08:43:11;;;;;;;16.17;7.70;;;;;;;17.37;47.13;100089.41;4999107;28;20489;-76
2022/05/07 08:45:41;;;;;;;14.50;7.75;;;;;;;17.40;46.26;100088.72;5004511;28;20026;-77
2022/05/07 08:48:08;;;;;;;22.15;8.75;;;;;;;17.61;46.88;100088.41;5004468;28;20033;-77
2022/05/07 08:50:34;;;;;;;18.65;7.57;;;;;;;17.53;46.50;100083.75;5009651;28;20030;-76
2022/05/07 08:53:00;;;;;;;48.78;9.25;;;;;;;17.79;48.09;100079.47;4998751;28;20018;-76
2022/05/07 08:55:26;;;;;;;13.95;8.23;;;;;;;17.17;47.37;100077.22;5003779;28;20030;-78
2022/05/07 08:57:53;;;;;;;14.98;8.45;;;;;;;17.19;48.41;100080.50;5003839;28;20030;-74
2022/05/07 09:00:21;;;;;;;16.20;7.85;;;;;;;17.14;46.55;100078.78;4997211;28;20022;-74
2022/05/07 09:02:57;;;;;;;11.30;7.78;;;;;;;17.38;47.11;100086.25;4993166;28;20033;-74
2022/05/07 09:05:32;;;;;;;10.88;6.85;;;;;;;17.32;44.54;100078.41;5001639;28;20018;-76
2022/05/07 09:07:58;;;;;;;11.77;7.00;;;;;;;17.37;44.75;100083.75;5012042;28;20026;-73
2022/05/07 09:10:30;;;;;;;20.95;8.75;;;;;;;17.44;45.75;100080.31;5012116;28;20096;-72
2022/05/07 09:13:14;;;;;;;417.30;37.40;;;;;;;17.42;45.66;100085.50;4990281;28;20037;-72
2022/05/07 09:15:50;;;;;;;14.93;7.78;;;;;;;17.86;45.53;100073.16;4983462;28;20025;-73
2022/05/07 09:18:17;;;;;;;24.02;7.60;;;;;;;18.07;45.43;100085.00;5011551;28;20028;-73
2022/05/07 09:20:42;;;;;;;53.05;12.10;;;;;;;18.15;44.29;100068.97;5009459;28;20024;-76
2022/05/07 09:23:10;;;;;;;11.20;6.85;;;;;;;18.44;44.42;100080.91;5004870;28;20022;-72
2022/05/07 09:25:46;;;;;;;12.98;6.28;;;;;;;18.46;43.54;100077.69;4993551;28;20104;-72
2022/05/07 09:28:12;;;;;;;18.00;7.70;;;;;;;18.34;43.65;100071.00;4971661;28;20041;-75
2022/05/07 09:30:38;;;;;;;13.85;7.53;;;;;;;18.47;43.33;100068.00;5008130;28;20022;-72
2022/05/07 09:33:06;;;;;;;15.88;6.57;;;;;;;18.59;42.47;100076.34;4980296;28;20515;-73
2022/05/07 09:35:50;;;;;;;17.58;7.38;;;;;;;18.09;42.12;100076.13;5004053;28;20041;-72
2022/05/07 09:38:22;;;;;;;19.17;6.30;;;;;;;18.11;42.29;100085.06;4975566;28;20522;-73
2022/05/07 09:40:48;;;;;;;11.57;6.53;;;;;;;18.28;42.09;100066.81;4992488;28;20397;-72
2022/05/07 09:43:14;;;;;;;15.85;7.53;;;;;;;18.42;41.33;100069.13;5008264;28;20030;-74
2022/05/07 09:45:41;;;;;;;21.50;8.48;;;;;;;18.16;42.42;100069.81;5005396;28;20029;-72
2022/05/07 09:48:08;;;;;;;11.95;7.72;;;;;;;18.24;42.56;100060.28;4991985;28;20018;-72
2022/05/07 09:58:36;;;;;;;15.70;10.10;;;;;;;18.67;44.48;100061.09;4995688;28;20049;-72
2022/05/07 10:01:11;;;;;;;18.05;10.50;;;;;;;18.48;43.34;100058.31;4992185;28;20031;-73
2022/05/07 10:03:54;;;;;;;14.27;10.38;;;;;;;18.82;43.83;100052.84;4995652;28;20113;-73
2022/05/07 10:06:23;;;;;;;19.45;11.02;;;;;;;18.86;43.73;100047.25;4986490;28;20034;-73
2022/05/07 10:09:33;;;;;;;14.43;9.48;;;;;;;19.03;43.48;100041.13;5003056;28;20029;-73
2022/05/07 10:12:00;;;;;;;16.92;9.88;;;;;;;19.34;43.94;100042.00;4992572;28;20437;-73
2022/05/07 10:14:30;;;;;;;22.45;10.98;;;;;;;19.53;41.82;100036.59;5002408;28;20026;-73
2022/05/07 10:16:58;;;;;;;17.90;9.18;;;;;;;19.62;43.20;100029.47;5007075;28;20026;-71
2022/05/07 10:20:02;;;;;;;18.02;8.27;;;;;;;19.79;42.09;100030.09;5009283;28;20045;-74
2022/05/07 10:22:29;;;;;;;14.07;7.57;;;;;;;19.79;40.33;100021.59;4976815;28;20042;-72
2022/05/07 10:25:06;;;;;;;14.90;7.57;;;;;;;19.83;38.92;100027.31;4999315;28;20026;-73
2022/05/07 10:27:44;;;;;;;14.77;7.43;;;;;;;19.97;40.07;100021.84;5004632;28;20066;-71
2022/05/07 10:30:10;;;;;;;13.60;7.15;;;;;;;20.19;39.26;100014.38;4990350;28;20116;-69
2022/05/07 10:32:58;;;;;;;11.15;6.60;;;;;;;20.33;39.13;100019.44;4995578;28;20117;-69
2022/05/07 10:35:47;;;;;;;20.20;6.57;;;;;;;20.45;39.93;100011.84;4994789;28;20022;-71
2022/05/07 10:38:37;;;;;;;12.70;7.03;;;;;;;20.41;39.21;100005.31;5014867;28;20521;-70
2022/05/07 10:41:05;;;;;;;9.18;6.20;;;;;;;20.49;39.38;100007.00;5014818;28;20112;-71
2022/05/07 10:43:38;;;;;;;13.00;6.47;;;;;;;20.37;39.05;100005.28;5004882;28;20129;-71
2022/05/07 10:46:08;;;;;;;11.32;6.13;;;;;;;20.34;38.35;99998.34;4998968;28;20101;-69
2022/05/07 10:48:50;;;;;;;14.43;7.60;;;;;;;20.29;39.71;99998.69;5004193;28;20579;-71
2022/05/07 10:51:35;;;;;;;12.85;8.20;;;;;;;20.17;39.54;99993.28;4990184;28;20113;-71
2022/05/07 10:54:16;;;;;;;12.65;7.05;;;;;;;19.99;40.34;99985.38;4996012;28;20041;-73
2022/05/07 10:56:50;;;;;;;8.95;6.22;;;;;;;20.25;40.67;99986.47;4995023;28;20046;-73
2022/05/07 10:59:16;;;;;;;12.43;6.10;;;;;;;20.18;40.19;99983.56;4993999;28;20034;-72
2022/05/07 11:01:42;;;;;;;11.73;6.95;;;;;;;20.25;40.00;99977.94;5006054;28;20041;-73
2022/05/07 11:04:12;;;;;;;7.55;6.78;;;;;;;20.40;40.59;99975.28;4981633;28;20030;-73
2022/05/07 11:06:40;;;;;;;20.38;6.70;;;;;;;20.20;38.83;99979.09;4998742;28;20095;-72
2022/05/07 11:09:06;;;;;;;10.30;6.60;;;;;;;20.11;39.02;99972.13;5004630;28;20092;-73
2022/05/07 11:11:44;;;;;;;9.90;5.65;;;;;;;20.28;38.44;99968.66;5006820;28;20033;-73
2022/05/07 11:14:11;;;;;;;9.07;5.53;;;;;;;20.21;38.85;99960.06;4974901;28;20037;-73
2022/05/07 11:16:41;;;;;;;10.55;5.55;;;;;;;20.10;38.04;99967.63;4985301;28;20036;-74
2022/05/07 11:19:06;;;;;;;;;;;;;;;20.28;38.42;99962.97;4990349;28;20507;-71
2022/05/07 11:21:36;;;;;;;13.88;5.60;;;;;;;20.29;37.80;99958.94;4991505;28;20096;-71
2022/05/07 11:24:02;;;;;;;;;;;;;;;20.39;38.24;99962.25;5011293;28;20022;-71
2022/05/07 11:26:28;;;;;;;8.02;5.95;;;;;;;20.18;39.31;99950.28;5011216;28;20404;-73
2022/05/07 11:28:55;;;;;;;10.40;6.38;;;;;;;20.33;39.96;99958.94;5009603;28;20026;-71
2022/05/07 11:31:34;;;;;;;12.70;6.65;;;;;;;20.38;37.46;99940.75;4993266;28;20022;-71
2022/05/07 11:34:10;;;;;;;11.73;6.20;;;;;;;20.55;38.19;99942.13;4993457;28;20030;-71
2022/05/07 11:36:37;;;;;;;10.05;5.20;;;;;;;20.88;38.35;99938.38;4993763;28;20105;-73
2022/05/07 11:39:05;;;;;;;12.38;4.80;;;;;;;21.20;36.46;99939.81;5007907;28;20046;-73
2022/05/07 11:41:31;;;;;;;10.90;6.03;;;;;;;21.14;35.68;99941.38;5010373;28;20037;-73
2022/05/07 11:46:49;;;;;;;8.25;4.97;;;;;;;21.03;35.65;99932.78;4992041;28;20034;-73
2022/05/07 11:49:15;;;;;;;6.10;4.50;;;;;;;20.74;36.36;99929.69;4996835;28;20057;-73
2022/05/07 11:51:40;;;;;;;12.93;5.50;;;;;;;20.83;36.61;99938.72;5000001;28;20398;-73